Time;durP1;ratioP1;P1;durP2;ratioP2;P2;SDS_P1;SDS_P2;PMS_P1;PMS_P2;Temp;Humidity;BMP_temperature;BMP_pressure;BME280_temperature;BME280_humidity;BME280_pressure;Samples;Min_cycle;Max_cycle;Signal;HPM_P1;HPM_P2
2023/03/11 00:01:26;;;;;;;1.00;0.80;;;;;;;6.74;62.30;90932.91;4976917;28;20046;-78
2023/03/11 00:03:51;;;;;;;1.65;1.08;;;;;;;6.73;63.90;90935.78;4976321;28;20077;-79
2023/03/11 00:06:17;;;;;;;1.58;0.90;;;;;;;6.62;65.46;90938.66;4975932;28;20034;-79
2023/03/11 00:08:42;;;;;;;0.55;0.55;;;;;;;6.78;60.89;90939.03;4975922;28;20082;-79
2023/03/11 00:11:08;;;;;;;0.40;0.40;;;;;;;6.75;59.96;90926.63;4958433;28;20046;-79
2023/03/11 00:13:35;;;;;;;1.20;0.93;;;;;;;6.76;61.87;90922.22;4974292;28;20035;-79
2023/03/11 00:16:01;;;;;;;0.50;0.50;;;;;;;6.72;60.88;90932.44;4973476;28;20053;-79
2023/03/11 00:18:30;;;;;;;0.43;0.43;;;;;;;6.86;61.86;90940.13;4976470;28;20405;-78
2023/03/11 00:20:57;;;;;;;0.30;0.30;;;;;;;7.03;58.81;90931.63;4974576;28;20042;-79
2023/03/11 00:23:25;;;;;;;0.77;0.77;;;;;;;6.77;63.63;90934.88;4958879;28;20039;-78
2023/03/11 00:25:51;;;;;;;0.68;0.68;;;;;;;6.63;62.55;90932.38;4976255;28;20135;-79
2023/03/11 00:28:16;;;;;;;0.52;0.52;;;;;;;6.80;59.49;90929.09;4975395;28;20042;-79
2023/03/11 00:30:44;;;;;;;0.60;0.60;;;;;;;6.75;62.72;90926.63;4974233;28;20039;-78
2023/03/11 00:33:11;;;;;;;0.70;0.70;;;;;;;6.91;57.99;90903.56;4975326;28;20035;-78
2023/03/11 00:35:40;;;;;;;0.50;0.50;;;;;;;6.83;59.39;90901.72;4975002;28;20023;-78
2023/03/11 00:38:10;;;;;;;0.70;0.70;;;;;;;6.83;59.82;90918.09;4973939;28;20134;-79
2023/03/11 00:40:38;;;;;;;0.70;0.70;;;;;;;6.76;60.19;90917.78;4958229;28;20051;-79
2023/03/11 00:43:03;;;;;;;0.50;0.50;;;;;;;7.04;55.82;90917.53;4975798;28;20034;-78
2023/03/11 00:45:30;;;;;;;0.50;0.50;;;;;;;7.07;55.75;90902.09;4973985;28;20386;-79
2023/03/11 00:47:56;;;;;;;0.60;0.60;;;;;;;7.16;54.73;90893.53;4975777;28;20026;-79
2023/03/11 00:50:28;;;;;;;0.60;0.60;;;;;;;7.14;57.13;90885.25;4973966;28;20050;-79
2023/03/11 00:52:55;;;;;;;;;;;;;;;7.19;54.43;90885.91;4988776;28;20034;-78
2023/03/11 00:55:23;;;;;;;0.60;0.60;;;;;;;7.20;54.29;90860.63;4974154;28;20012;-78
2023/03/11 00:57:57;;;;;;;0.40;0.40;;;;;;;7.19;54.25;90867.69;4957972;28;20057;-79
2023/03/11 01:00:27;;;;;;;0.60;0.60;;;;;;;7.42;53.09;90870.91;4973786;28;20524;-79
2023/03/11 01:02:54;;;;;;;0.40;0.40;;;;;;;7.47;52.78;90867.41;4975535;28;20058;-79
2023/03/11 01:05:24;;;;;;;0.40;0.40;;;;;;;7.47;53.14;90870.75;4974473;28;20034;-79
2023/03/11 01:07:50;;;;;;;0.47;0.47;;;;;;;7.54;52.09;90861.72;4973319;28;20038;-79
2023/03/11 01:10:16;;;;;;;0.50;0.50;;;;;;;7.55;52.31;90845.81;4975087;28;20101;-79
2023/03/11 01:12:43;;;;;;;0.40;0.40;;;;;;;7.68;51.48;90847.50;4975059;28;20046;-79
2023/03/11 01:15:17;;;;;;;0.50;0.50;;;;;;;7.68;51.91;90851.94;4973676;28;20556;-79
2023/03/11 01:17:43;;;;;;;0.35;0.35;;;;;;;7.59;52.59;90858.97;4974971;28;20057;-79
2023/03/11 01:20:09;;;;;;;0.43;0.43;;;;;;;7.65;51.81;90858.50;4973943;28;20035;-79
2023/03/11 01:22:35;;;;;;;0.50;0.50;;;;;;;7.81;51.52;90852.84;4974622;28;20512;-79
2023/03/11 01:25:01;;;;;;;0.50;0.50;;;;;;;7.57;53.66;90841.06;4976734;28;20054;-79
2023/03/11 01:27:27;;;;;;;0.45;0.45;;;;;;;7.59;53.48;90840.72;4942512;28;20093;-78
2023/03/11 01:29:54;;;;;;;0.50;0.50;;;;;;;7.45;52.57;90846.09;4973854;28;20122;-79
2023/03/11 01:32:20;;;;;;;0.38;0.38;;;;;;;7.47;52.13;90841.34;4953524;28;20049;-79
2023/03/11 01:34:45;;;;;;;0.40;0.40;;;;;;;7.68;51.41;90833.72;4953648;28;20043;-79
2023/03/11 01:37:11;;;;;;;0.40;0.40;;;;;;;7.56;51.86;90852.53;4973051;28;20049;-79
2023/03/11 01:39:36;;;;;;;0.50;0.50;;;;;;;7.66;51.77;90847.03;4973511;28;20069;-79
2023/03/11 01:42:02;;;;;;;0.43;0.43;;;;;;;7.64;51.84;90851.78;4975160;28;20073;-79
2023/03/11 01:44:28;;;;;;;0.50;0.50;;;;;;;7.68;51.65;90852.69;4973654;28;20038;-78
2023/03/11 01:46:57;;;;;;;0.50;0.50;;;;;;;8.01;50.52;90833.94;4973701;28;20551;-79
2023/03/11 01:49:27;;;;;;;0.50;0.50;;;;;;;7.77;51.56;90836.28;4958492;28;20472;-78
2023/03/11 01:51:58;;;;;;;0.45;0.45;;;;;;;7.68;52.15;90821.44;4973584;28;20034;-78
2023/03/11 01:54:28;;;;;;;0.30;0.30;;;;;;;7.69;51.64;90825.56;4972931;28;20054;-79
2023/03/11 01:56:56;;;;;;;0.40;0.40;;;;;;;7.64;51.61;90817.94;4973042;28;20208;-79
2023/03/11 01:59:28;;;;;;;0.40;0.40;;;;;;;7.62;52.22;90822.66;4973893;28;20065;-79
2023/03/11 02:02:31;;;;;;;0.40;0.40;;;;;;;7.72;52.43;90814.56;4975126;28;20039;-79
2023/03/11 02:05:00;;;;;;;0.50;0.50;;;;;;;7.70;51.31;90821.91;4973633;28;20042;-78
2023/03/11 02:07:25;;;;;;;0.40;0.40;;;;;;;7.85;53.24;90825.09;4973625;28;20492;-79
2023/03/11 02:09:51;;;;;;;0.57;0.57;;;;;;;7.85;53.59;90833.66;4972925;28;20126;-79
2023/03/11 02:12:18;;;;;;;0.52;0.52;;;;;;;7.64;54.64;90825.72;4941590;28;20125;-79
2023/03/11 02:14:50;;;;;;;0.52;0.52;;;;;;;7.41;55.84;90813.97;4973944;28;20031;-79
2023/03/11 02:17:16;;;;;;;0.55;0.55;;;;;;;7.30;56.71;90813.50;4972914;28;20039;-79
2023/03/11 02:20:00;;;;;;;0.50;0.50;;;;;;;7.15;57.11;90819.91;4989686;28;20039;-79
2023/03/11 02:22:28;;;;;;;0.55;0.55;;;;;;;7.13;57.33;90819.44;4954792;29;20136;-79
2023/03/11 02:25:03;;;;;;;0.50;0.50;;;;;;;7.02;57.45;90831.97;4953904;29;20031;-77
2023/03/11 02:27:33;;;;;;;0.57;0.57;;;;;;;6.93;58.03;90833.03;4965450;28;20034;-79
2023/03/11 02:30:02;;;;;;;0.50;0.50;;;;;;;6.97;58.41;90841.78;4973105;28;20034;-79
2023/03/11 02:32:31;;;;;;;0.50;0.50;;;;;;;7.07;57.69;90833.69;4957143;28;20129;-78
2023/03/11 02:34:56;;;;;;;0.65;0.65;;;;;;;7.03;57.80;90830.16;4972816;28;20097;-79
2023/03/11 02:37:23;;;;;;;0.60;0.60;;;;;;;6.88;58.71;90816.50;4972622;28;20038;-79
2023/03/11 02:40:21;;;;;;;0.60;0.60;;;;;;;7.10;57.81;90809.66;4973251;28;20027;-79
2023/03/11 02:42:50;;;;;;;0.40;0.40;;;;;;;6.95;57.98;90817.91;4971680;28;20045;-78
2023/03/11 02:45:19;;;;;;;0.45;0.45;;;;;;;6.78;59.39;90803.03;4973042;28;20034;-79
2023/03/11 02:47:45;;;;;;;0.50;0.50;;;;;;;6.66;59.70;90790.59;4973017;28;20039;-79
2023/03/11 02:50:15;;;;;;;0.40;0.40;;;;;;;6.62;60.06;90789.69;4975246;28;20496;-79
2023/03/11 02:52:41;;;;;;;0.40;0.40;;;;;;;6.58;60.03;90775.78;4972397;28;20401;-79
2023/03/11 02:55:10;;;;;;;0.40;0.40;;;;;;;6.47;60.30;90770.84;4981330;28;20042;-79
2023/03/11 02:57:37;;;;;;;0.65;0.40;;;;;;;6.43;60.73;90769.91;4960425;28;20058;-79
2023/03/11 03:00:11;;;;;;;0.50;0.50;;;;;;;6.34;61.64;90773.56;4976013;28;20045;-79
2023/03/11 03:02:37;;;;;;;0.73;0.55;;;;;;;6.29;62.10;90768.50;4975934;28;20034;-79
2023/03/11 03:05:04;;;;;;;0.40;0.40;;;;;;;6.26;62.12;90780.28;4976186;28;20027;-79
2023/03/11 03:07:31;;;;;;;0.50;0.50;;;;;;;6.18;63.04;90776.56;4960060;28;20045;-79
2023/03/11 03:09:57;;;;;;;0.70;0.70;;;;;;;6.16;63.42;90790.91;4976708;28;20538;-79
2023/03/11 03:12:22;;;;;;;0.50;0.50;;;;;;;6.23;62.02;90776.41;4971903;28;20031;-78
2023/03/11 03:14:48;;;;;;;0.50;0.50;;;;;;;6.35;60.40;90775.88;4956896;28;20584;-79
2023/03/11 03:17:15;;;;;;;0.40;0.40;;;;;;;6.61;59.63;90786.31;4968130;28;20043;-79
2023/03/11 03:19:41;;;;;;;0.50;0.50;;;;;;;6.81;58.53;90787.59;4956553;29;20035;-79
2023/03/11 03:22:07;;;;;;;0.55;0.55;;;;;;;6.95;58.08;90779.63;4956599;29;20568;-79
2023/03/11 03:24:33;;;;;;;0.60;0.60;;;;;;;7.03;57.27;90765.13;4956492;29;20032;-79
2023/03/11 03:26:58;;;;;;;0.35;0.35;;;;;;;7.32;56.06;90761.13;4940079;29;20070;-79
2023/03/11 03:29:24;;;;;;;0.50;0.50;;;;;;;7.33;55.69;90762.66;4957427;29;20118;-79
2023/03/11 03:31:50;;;;;;;0.60;0.40;;;;;;;7.59;54.98;90720.94;4959843;28;20045;-79
2023/03/11 03:34:16;;;;;;;0.50;0.50;;;;;;;7.60;54.65;90741.47;4996172;28;20047;-79
2023/03/11 03:36:42;;;;;;;0.70;0.70;;;;;;;7.74;54.26;90766.59;4994846;28;20034;-79
2023/03/11 03:39:07;;;;;;;0.60;0.60;;;;;;;7.82;54.34;90771.03;4975283;28;20045;-79
2023/03/11 03:41:35;;;;;;;0.60;0.60;;;;;;;7.86;54.11;90784.97;4960317;28;20043;-79
2023/03/11 03:44:02;;;;;;;0.60;0.60;;;;;;;7.88;53.95;90777.56;4975225;28;20508;-79
2023/03/11 03:46:29;;;;;;;0.63;0.63;;;;;;;7.85;54.23;90771.16;4975662;28;20046;-79
2023/03/11 03:48:57;;;;;;;0.60;0.60;;;;;;;7.86;54.57;90790.16;4972180;28;20064;-79
2023/03/11 03:51:23;;;;;;;0.57;0.57;;;;;;;8.04;53.69;90801.31;4972284;28;20050;-79
2023/03/11 03:54:23;;;;;;;0.60;0.60;;;;;;;8.09;54.08;90795.94;4935544;29;20520;-79
2023/03/11 03:56:49;;;;;;;0.50;0.50;;;;;;;8.22;53.13;90808.00;4967786;28;20046;-79
2023/03/11 03:59:15;;;;;;;0.65;0.65;;;;;;;8.27;53.28;90813.03;4988300;28;20098;-79
2023/03/11 04:01:47;;;;;;;0.68;0.68;;;;;;;7.97;55.06;90814.81;4940898;29;20042;-79
2023/03/11 04:04:14;;;;;;;0.47;0.47;;;;;;;7.72;55.98;90805.94;4940391;29;20043;-79
2023/03/11 04:06:41;;;;;;;0.50;0.50;;;;;;;7.59;56.62;90780.84;4957013;29;20555;-78
2023/03/11 04:09:09;;;;;;;0.40;0.40;;;;;;;7.59;56.85;90760.00;4946852;28;20416;-79
2023/03/11 04:11:36;;;;;;;0.60;0.60;;;;;;;7.50;56.32;90757.44;4975151;28;20038;-79
2023/03/11 04:14:04;;;;;;;0.50;0.50;;;;;;;7.33;57.09;90767.88;4974264;28;20066;-79
2023/03/11 04:16:32;;;;;;;0.60;0.60;;;;;;;7.41;56.27;90777.53;4958609;28;20063;-79
2023/03/11 04:19:06;;;;;;;0.52;0.52;;;;;;;7.36;56.82;90773.22;4975280;28;20062;-79
2023/03/11 04:21:32;;;;;;;0.60;0.60;;;;;;;7.26;57.28;90799.56;4956217;28;20047;-79
2023/03/11 04:23:58;;;;;;;0.60;0.60;;;;;;;7.24;57.32;90797.25;4972034;28;20096;-79
2023/03/11 04:26:29;;;;;;;0.60;0.60;;;;;;;7.27;56.70;90782.88;4971413;28;20043;-79
2023/03/11 04:28:55;;;;;;;0.70;0.70;;;;;;;7.18;57.76;90776.91;4971573;28;20158;-79
2023/03/11 04:31:22;;;;;;;0.57;0.57;;;;;;;7.44;56.68;90769.09;4954966;29;20054;-79
2023/03/11 04:33:48;;;;;;;0.50;0.50;;;;;;;7.13;58.44;90758.84;4955060;29;20509;-79
2023/03/11 04:36:14;;;;;;;0.60;0.60;;;;;;;7.04;58.86;90751.03;4955336;29;20050;-79
2023/03/11 04:38:41;;;;;;;0.50;0.50;;;;;;;7.17;58.27;90763.13;4939734;29;20112;-79
2023/03/11 04:41:09;;;;;;;0.50;0.50;;;;;;;6.97;59.02;90761.91;4971380;28;20445;-79
2023/03/11 04:43:38;;;;;;;0.60;0.60;;;;;;;6.94;59.44;90766.97;4957752;28;20058;-78
2023/03/11 04:46:03;;;;;;;0.40;0.40;;;;;;;6.86;59.69;90774.44;4974336;28;20077;-79
2023/03/11 04:48:29;;;;;;;0.60;0.60;;;;;;;6.93;59.95;90773.22;4974318;28;20194;-79
2023/03/11 04:50:55;;;;;;;0.47;0.47;;;;;;;6.90;59.75;90779.78;4974876;28;20078;-78
2023/03/11 04:53:23;;;;;;;0.55;0.55;;;;;;;6.81;60.14;90781.63;4974108;28;20034;-77
2023/03/11 04:55:49;;;;;;;0.43;0.43;;;;;;;6.70;60.80;90809.75;4958488;28;20094;-79
2023/03/11 04:58:15;;;;;;;0.52;0.52;;;;;;;6.63;61.04;90809.44;4974386;28;20057;-79
2023/03/11 05:00:42;;;;;;;0.40;0.40;;;;;;;6.51;62.19;90810.00;4973942;28;20062;-79
2023/03/11 05:03:11;;;;;;;0.52;0.52;;;;;;;6.77;61.14;90799.66;4949297;28;20027;-79
2023/03/11 05:05:37;;;;;;;0.50;0.50;;;;;;;6.84;62.07;90794.78;4955212;29;20126;-79
2023/03/11 05:08:04;;;;;;;0.60;0.60;;;;;;;6.56;63.41;90809.09;4939487;29;20126;-79
2023/03/11 05:10:31;;;;;;;0.50;0.50;;;;;;;6.37;64.33;90828.31;4954993;29;20038;-79
2023/03/11 05:12:58;;;;;;;0.50;0.50;;;;;;;6.35;63.69;90814.84;4955403;28;20039;-79
2023/03/11 05:15:30;;;;;;;0.50;0.50;;;;;;;6.53;63.39;90800.06;4953909;29;20066;-79
2023/03/11 05:17:58;;;;;;;0.40;0.40;;;;;;;6.57;62.56;90797.63;4963269;28;20138;-79
2023/03/11 05:20:24;;;;;;;0.50;0.50;;;;;;;6.63;63.08;90806.81;4973843;28;20065;-79
2023/03/11 05:22:50;;;;;;;0.40;0.40;;;;;;;6.72;62.48;90767.84;4974072;28;20043;-79
2023/03/11 05:25:16;;;;;;;0.55;0.55;;;;;;;6.62;63.02;90772.25;4957836;28;20094;-78
2023/03/11 05:27:42;;;;;;;0.52;0.52;;;;;;;6.59;63.24;90779.88;4957180;28;20039;-79
2023/03/11 05:30:09;;;;;;;0.50;0.50;;;;;;;6.62;62.42;90777.47;4973063;28;20097;-79
2023/03/11 05:32:36;;;;;;;0.50;0.50;;;;;;;6.69;62.32;90766.63;4973862;28;20065;-78
2023/03/11 05:35:05;;;;;;;0.55;0.55;;;;;;;6.69;62.58;90771.81;4973938;28;20034;-79
2023/03/11 05:37:31;;;;;;;0.60;0.60;;;;;;;6.61;62.80;90755.13;4974297;28;20518;-78
2023/03/11 05:39:57;;;;;;;0.43;0.43;;;;;;;6.59;62.89;90798.84;4973555;28;20527;-79
2023/03/11 05:42:23;;;;;;;0.60;0.60;;;;;;;6.58;62.57;90797.34;4973476;28;20034;-79
2023/03/11 05:44:52;;;;;;;0.50;0.50;;;;;;;6.47;63.10;90789.03;4958235;28;20182;-79
2023/03/11 05:47:19;;;;;;;0.40;0.40;;;;;;;6.62;62.51;90807.88;4973662;28;20045;-79
2023/03/11 05:49:47;;;;;;;0.65;0.65;;;;;;;6.68;61.96;90817.84;4973812;28;20098;-79
2023/03/11 05:52:16;;;;;;;0.50;0.50;;;;;;;6.64;62.24;90782.34;4957733;28;20047;-79
2023/03/11 05:54:42;;;;;;;0.50;0.50;;;;;;;6.61;62.18;90775.16;4974112;28;20113;-79
2023/03/11 05:57:09;;;;;;;0.40;0.40;;;;;;;6.62;62.43;90789.69;4955529;28;20047;-78
2023/03/11 05:59:36;;;;;;;0.60;0.60;;;;;;;6.84;62.19;90810.38;4938346;28;20043;-81
2023/03/11 06:02:03;;;;;;;0.73;0.73;;;;;;;7.55;60.42;90806.00;4965532;28;20043;-80
2023/03/11 06:04:29;;;;;;;0.50;0.50;;;;;;;8.33;57.05;90803.19;4952336;28;20066;-81
2023/03/11 06:06:56;;;;;;;0.60;0.60;;;;;;;8.93;55.04;90799.56;4969150;28;20135;-81
2023/03/11 06:09:25;;;;;;;0.50;0.50;;;;;;;9.29;53.67;90789.66;4968972;28;20056;-81
2023/03/11 06:11:52;;;;;;;0.50;0.50;;;;;;;8.80;54.38;90784.88;4952696;28;20118;-81
2023/03/11 06:14:20;;;;;;;0.50;0.50;;;;;;;8.28;56.08;90785.13;4970436;28;20031;-81
2023/03/11 06:16:48;;;;;;;0.50;0.50;;;;;;;7.93;57.41;90783.41;4967854;28;20043;-80
2023/03/11 06:19:14;;;;;;;0.50;0.50;;;;;;;7.74;57.96;90777.75;4953258;28;20042;-80
2023/03/11 06:21:44;;;;;;;0.40;0.40;;;;;;;7.64;59.01;90783.31;4956939;28;20034;-80
2023/03/11 06:24:09;;;;;;;0.50;0.50;;;;;;;7.60;59.60;90757.09;4968062;28;20039;-81
2023/03/11 06:26:36;;;;;;;0.55;0.55;;;;;;;7.74;56.89;90753.56;4977176;28;20123;-84
2023/03/11 06:29:02;;;;;;;0.50;0.50;;;;;;;7.58;57.94;90755.88;4976017;28;20027;-81
2023/03/11 06:31:29;;;;;;;0.43;0.43;;;;;;;7.44;58.82;90741.22;4978335;28;20089;-79
2023/03/11 06:34:01;;;;;;;0.50;0.50;;;;;;;7.45;59.30;90754.97;4988088;28;20114;-81
2023/03/11 06:36:27;;;;;;;0.60;0.60;;;;;;;7.39;59.99;90783.03;4972981;28;20575;-82
2023/03/11 06:38:53;;;;;;;0.52;0.52;;;;;;;7.70;58.90;90771.63;4957016;28;20042;-80
2023/03/11 06:41:20;;;;;;;0.40;0.40;;;;;;;7.73;58.36;90773.63;4974310;28;20094;-80
2023/03/11 06:43:46;;;;;;;0.60;0.60;;;;;;;7.66;59.28;90771.50;4965857;28;20086;-81
2023/03/11 06:46:16;;;;;;;0.57;0.57;;;;;;;7.69;59.43;90783.91;4973040;28;20396;-82
2023/03/11 06:48:43;;;;;;;0.50;0.50;;;;;;;7.71;59.92;90786.97;4972317;28;20023;-80
2023/03/11 06:51:09;;;;;;;0.60;0.60;;;;;;;8.29;57.16;90791.88;4986285;28;20039;-81
2023/03/11 06:53:35;;;;;;;0.55;0.55;;;;;;;9.82;55.58;90805.66;4936159;28;20135;-82
2023/03/11 06:56:01;;;;;;;0.60;0.60;;;;;;;11.51;47.76;90811.66;4956280;28;20498;-83
2023/03/11 06:58:31;;;;;;;0.50;0.50;;;;;;;12.97;46.70;90827.75;4972612;28;20030;-81
2023/03/11 07:01:09;;;;;;;0.60;0.60;;;;;;;14.41;43.07;90822.75;4951411;28;20061;-83
2023/03/11 07:03:37;;;;;;;0.50;0.50;;;;;;;15.52;39.30;90833.19;4987312;28;20027;-81
2023/03/11 07:06:04;;;;;;;0.40;0.40;;;;;;;15.50;38.25;90832.03;4958010;28;20656;-80
2023/03/11 07:08:30;;;;;;;0.50;0.50;;;;;;;15.60;38.08;90829.53;4960492;28;20041;-80
2023/03/11 07:11:20;;;;;;;0.50;0.50;;;;;;;16.54;36.66;90849.13;4959543;28;20043;-78
2023/03/11 07:13:49;;;;;;;0.60;0.60;;;;;;;17.21;37.56;90835.00;4977313;28;20551;-80
2023/03/11 07:16:22;;;;;;;0.50;0.50;;;;;;;18.19;34.95;90837.09;4981293;28;20050;-80
2023/03/11 07:18:50;;;;;;;0.30;0.30;;;;;;;18.96;34.37;90837.72;4970658;28;20049;-79
2023/03/11 07:21:22;;;;;;;0.20;0.20;;;;;;;18.45;33.38;90834.16;4962934;28;20041;-79
2023/03/11 07:23:52;;;;;;;;;;;;;;;17.47;32.99;90834.81;4979636;28;20039;-80
2023/03/11 07:26:19;;;;;;;0.40;0.40;;;;;;;17.67;33.93;90823.97;4979769;28;19914;-79
2023/03/11 07:28:44;;;;;;;0.40;0.40;;;;;;;18.28;32.71;90821.63;4977776;28;20055;-80
2023/03/11 07:31:13;;;;;;;0.30;0.30;;;;;;;18.17;33.52;90849.94;4978625;28;20042;-81
2023/03/11 07:33:40;;;;;;;0.30;0.30;;;;;;;17.97;32.60;90855.56;4970364;28;20041;-82
2023/03/11 07:36:18;;;;;;;0.30;0.30;;;;;;;16.42;34.65;90858.81;4964358;28;20061;-79
2023/03/11 07:38:44;;;;;;;1.85;0.50;;;;;;;15.42;36.70;90873.34;4959109;29;20043;-80
2023/03/11 07:41:15;;;;;;;0.30;0.30;;;;;;;15.08;38.47;90875.84;4977997;28;20588;-81
2023/03/11 07:43:41;;;;;;;0.40;0.40;;;;;;;15.17;38.87;90884.25;4979314;28;20031;-82
2023/03/11 07:46:17;;;;;;;0.40;0.40;;;;;;;15.28;39.13;90888.94;4976016;28;20131;-82
2023/03/11 07:48:43;;;;;;;0.50;0.47;;;;;;;15.05;38.00;90883.69;4960379;29;20127;-79
2023/03/11 07:51:12;;;;;;;0.40;0.40;;;;;;;14.63;39.55;90881.84;4959456;29;20107;-80
2023/03/11 07:53:45;;;;;;;0.43;0.43;;;;;;;14.63;40.32;90885.25;4964937;28;20035;-81
2023/03/11 07:56:12;;;;;;;0.50;0.50;;;;;;;15.18;39.26;90859.44;4976553;28;20133;-81
2023/03/11 07:58:38;;;;;;;0.60;0.60;;;;;;;15.46;39.55;90865.50;4982021;28;20027;-79
2023/03/11 08:01:09;;;;;;;0.40;0.40;;;;;;;16.07;39.55;90872.34;4981882;28;20082;-80
2023/03/11 08:03:35;;;;;;;0.32;0.32;;;;;;;16.35;37.85;90866.66;4981600;28;20062;-80
2023/03/11 08:06:01;;;;;;;0.40;0.40;;;;;;;16.63;36.49;90876.00;4984378;28;20034;-80
2023/03/11 08:08:28;;;;;;;0.32;0.32;;;;;;;15.22;38.83;90875.31;4985665;28;20077;-78
2023/03/11 08:10:55;;;;;;;0.43;0.43;;;;;;;15.52;39.87;90875.38;4983869;28;20390;-78
2023/03/11 08:13:20;;;;;;;0.50;0.50;;;;;;;15.89;38.46;90874.75;4983565;28;20042;-79
2023/03/11 08:15:46;;;;;;;0.60;0.60;;;;;;;15.99;37.89;90866.25;4982025;28;20034;-78
2023/03/11 08:18:11;;;;;;;0.50;0.50;;;;;;;15.17;37.97;90868.44;4977161;28;20045;-79
2023/03/11 08:20:38;;;;;;;0.60;0.60;;;;;;;14.86;39.03;90866.06;4980770;28;20042;-79
2023/03/11 08:23:04;;;;;;;0.40;0.40;;;;;;;13.87;40.20;90880.41;4983127;28;20419;-78
2023/03/11 08:25:29;;;;;;;0.47;0.47;;;;;;;14.25;40.76;90871.00;4996772;28;20039;-78
2023/03/11 08:27:55;;;;;;;0.30;0.30;;;;;;;14.26;39.52;90869.88;4977722;28;20050;-78
2023/03/11 08:30:21;;;;;;;0.50;0.50;;;;;;;13.71;41.25;90866.53;4981974;28;20074;-79
2023/03/11 08:32:48;;;;;;;1.00;0.50;;;;;;;14.26;41.47;90867.25;4981512;28;20437;-79
2023/03/11 08:35:14;;;;;;;0.50;0.50;;;;;;;14.53;40.62;90854.19;4986099;28;20063;-79
2023/03/11 08:37:40;;;;;;;1.23;0.60;;;;;;;14.54;40.68;90853.06;4984344;28;20035;-79
2023/03/11 08:40:06;;;;;;;0.50;0.50;;;;;;;14.63;40.80;90848.38;4981723;28;20046;-79
2023/03/11 08:42:32;;;;;;;0.50;0.50;;;;;;;14.78;38.78;90833.59;4976394;28;20061;-79
2023/03/11 08:44:58;;;;;;;0.60;0.60;;;;;;;14.87;38.73;90828.09;4977606;28;20563;-79
2023/03/11 08:47:23;;;;;;;0.30;0.30;;;;;;;14.11;39.91;90831.25;4979978;28;20033;-78
2023/03/11 08:49:49;;;;;;;0.40;0.40;;;;;;;14.34;38.95;90837.34;4980882;28;20500;-78
2023/03/11 08:52:14;;;;;;;0.40;0.40;;;;;;;14.55;40.62;90849.38;4980651;28;20619;-78
2023/03/11 08:54:41;;;;;;;0.50;0.50;;;;;;;14.75;40.86;90856.13;4973948;28;20110;-78
2023/03/11 08:57:07;;;;;;;0.43;0.43;;;;;;;14.94;38.80;90854.53;4978436;28;20084;-78
2023/03/11 08:59:32;;;;;;;0.40;0.40;;;;;;;14.90;39.23;90859.72;4984155;28;20509;-79
2023/03/11 09:01:58;;;;;;;0.43;0.43;;;;;;;14.64;39.73;90876.25;4986473;28;20103;-79
2023/03/11 09:04:24;;;;;;;0.45;0.45;;;;;;;14.54;39.18;90889.94;4981390;28;20039;-78
2023/03/11 09:06:49;;;;;;;0.40;0.40;;;;;;;14.94;40.16;90902.72;4981796;28;20031;-79
2023/03/11 09:09:16;;;;;;;0.38;0.38;;;;;;;15.05;40.08;90905.53;4984623;28;20097;-79
2023/03/11 09:11:42;;;;;;;0.38;0.38;;;;;;;14.79;40.00;90906.22;4984341;28;20042;-78
2023/03/11 09:14:08;;;;;;;2.20;0.50;;;;;;;14.56;40.39;90906.19;4985768;28;20035;-79
2023/03/11 09:16:33;;;;;;;0.40;0.40;;;;;;;14.36;40.47;90911.44;4982838;28;20858;-80
2023/03/11 09:19:05;;;;;;;0.50;0.50;;;;;;;14.26;40.07;90940.94;4979494;28;20046;-78
2023/03/11 09:21:32;;;;;;;0.50;0.50;;;;;;;14.07;40.73;90957.50;4968275;28;20042;-78
2023/03/11 09:23:58;;;;;;;0.60;0.60;;;;;;;13.84;41.06;90957.34;4976498;28;20153;-78
2023/03/11 09:26:24;;;;;;;0.52;0.52;;;;;;;13.68;41.08;90956.63;4966038;28;20070;-78
2023/03/11 09:28:50;;;;;;;0.60;0.60;;;;;;;13.56;40.88;90954.88;4976495;28;20042;-79
2023/03/11 09:31:16;;;;;;;0.40;0.40;;;;;;;13.21;41.84;90963.41;4975847;28;20027;-77
2023/03/11 09:33:42;;;;;;;0.40;0.40;;;;;;;13.35;42.39;90981.38;4975472;28;20039;-80
2023/03/11 09:36:13;;;;;;;0.50;0.50;;;;;;;13.43;41.24;90988.34;4980816;28;20035;-80
2023/03/11 09:38:38;;;;;;;0.60;0.60;;;;;;;13.47;42.29;91004.22;4978244;28;20026;-79
2023/03/11 09:41:11;;;;;;;0.57;0.57;;;;;;;13.58;42.02;90999.97;4976080;28;20527;-79
2023/03/11 09:43:53;;;;;;;0.40;0.40;;;;;;;13.44;42.32;91000.41;4972747;28;20031;-82
2023/03/11 09:46:37;;;;;;;0.50;0.50;;;;;;;13.29;42.86;91001.16;4982292;28;20034;-80
2023/03/11 09:49:40;;;;;;;0.57;0.57;;;;;;;13.48;41.58;91011.00;4981090;28;20126;-79
2023/03/11 09:52:14;;;;;;;0.45;0.45;;;;;;;13.94;41.01;91001.56;4979068;28;20067;-80
2023/03/11 09:54:42;;;;;;;0.45;0.45;;;;;;;14.45;38.54;91006.00;4977506;28;20125;-78
2023/03/11 09:57:16;;;;;;;0.40;0.40;;;;;;;14.84;39.70;90987.59;4971482;28;20524;-79
2023/03/11 09:59:45;;;;;;;0.40;0.40;;;;;;;15.62;38.63;91001.34;4962122;28;20039;-78
2023/03/11 10:02:17;;;;;;;0.40;0.40;;;;;;;16.31;37.87;90999.75;4962845;28;20109;-78
2023/03/11 10:04:46;;;;;;;;;;;;;;;16.89;36.93;90991.44;4957984;29;20045;-78
2023/03/11 10:07:20;;;;;;;0.55;0.55;;;;;;;17.26;36.05;90996.72;4992643;28;19914;-78
2023/03/11 10:09:57;;;;;;;0.40;0.40;;;;;;;17.64;35.60;91002.75;4978529;28;20035;-79
2023/03/11 10:13:22;;;;;;;0.50;0.50;;;;;;;17.65;35.64;91009.56;4977286;28;20039;-78
2023/03/11 10:16:12;;;;;;;0.30;0.30;;;;;;;16.99;35.05;91013.81;4954923;28;20063;-78
2023/03/11 10:19:21;;;;;;;0.50;0.50;;;;;;;15.58;36.85;91005.84;4976033;28;20054;-78
2023/03/11 10:22:00;;;;;;;0.50;0.50;;;;;;;14.99;38.49;90985.97;4980156;28;20039;-79
2023/03/11 10:24:29;;;;;;;0.40;0.40;;;;;;;15.20;38.68;90978.47;4979080;28;20081;-78
2023/03/11 10:27:08;;;;;;;0.55;0.50;;;;;;;15.59;38.30;90973.06;4980114;28;20432;-79
2023/03/11 10:30:01;;;;;;;0.68;0.68;;;;;;;15.21;37.65;90992.38;4979881;28;20041;-78
2023/03/11 10:32:39;;;;;;;0.52;0.52;;;;;;;15.56;39.03;90991.47;4978885;28;20065;-78
2023/03/11 10:35:35;;;;;;;0.57;0.57;;;;;;;15.97;39.13;90981.94;4978511;28;20043;-78
2023/03/11 10:38:30;;;;;;;0.32;0.32;;;;;;;16.49;37.40;90992.81;4980288;28;20507;-78
2023/03/11 10:41:00;;;;;;;0.50;0.50;;;;;;;16.62;37.05;90982.78;4978559;28;20048;-78
2023/03/11 10:43:35;;;;;;;0.50;0.50;;;;;;;16.97;36.63;90979.06;4979181;28;20066;-79
2023/03/11 10:46:28;;;;;;;0.50;0.50;;;;;;;17.24;35.33;90985.75;4980004;28;20050;-79
2023/03/11 10:48:55;;;;;;;0.50;0.50;;;;;;;17.42;35.72;90988.56;4975882;28;20086;-79
2023/03/11 10:51:25;;;;;;;0.40;0.40;;;;;;;16.84;35.03;90979.31;4980429;28;20094;-79
2023/03/11 10:53:58;;;;;;;0.57;0.57;;;;;;;16.81;36.00;90987.19;4979921;28;20038;-79
2023/03/11 10:56:46;;;;;;;0.60;0.60;;;;;;;16.57;36.64;90991.03;4975729;28;20059;-78
2023/03/11 10:59:44;;;;;;;0.40;0.40;;;;;;;16.84;36.28;90981.94;4980514;28;20493;-79
2023/03/11 11:02:24;;;;;;;0.40;0.40;;;;;;;17.09;37.01;90980.69;4979133;28;20044;-78
2023/03/11 11:05:05;;;;;;;0.40;0.40;;;;;;;17.06;36.67;90975.00;4980559;28;20034;-79
2023/03/11 11:07:31;;;;;;;0.40;0.40;;;;;;;17.48;35.81;90981.06;4979390;28;20555;-78
2023/03/11 11:10:26;;;;;;;0.50;0.50;;;;;;;17.25;34.98;90971.41;4977962;28;20035;-78
2023/03/11 11:13:02;;;;;;;0.40;0.40;;;;;;;17.19;35.88;90983.44;4978008;28;20094;-78
2023/03/11 11:15:35;;;;;;;0.40;0.40;;;;;;;17.17;35.92;90980.38;4978382;28;20038;-78
2023/03/11 11:18:17;;;;;;;1.73;0.60;;;;;;;16.88;37.06;90970.66;4978474;28;20404;-79
2023/03/11 11:21:07;;;;;;;0.40;0.40;;;;;;;17.46;36.32;90978.03;4978039;28;20030;-78
2023/03/11 11:23:47;;;;;;;0.40;0.40;;;;;;;17.49;35.31;90979.94;4978114;28;20556;-79
2023/03/11 11:26:22;;;;;;;0.55;0.40;;;;;;;17.84;35.32;90984.03;4962400;28;20490;-79
2023/03/11 11:29:14;;;;;;;0.40;0.40;;;;;;;17.99;33.25;90969.00;4959319;29;20062;-79
2023/03/11 11:31:44;;;;;;;0.43;0.43;;;;;;;18.05;32.45;90970.94;4956330;29;20454;-78
2023/03/11 11:34:34;;;;;;;0.40;0.40;;;;;;;17.26;34.15;90967.63;4958847;29;20126;-78
2023/03/11 11:37:03;;;;;;;0.40;0.40;;;;;;;17.44;35.60;90970.44;4964546;28;20521;-78
2023/03/11 11:39:42;;;;;;;0.50;0.50;;;;;;;17.60;34.62;90966.78;4976618;28;20105;-79
2023/03/11 11:42:13;;;;;;;0.30;0.30;;;;;;;17.91;33.65;90970.84;4993215;28;20436;-77
2023/03/11 11:44:58;;;;;;;0.50;0.50;;;;;;;18.22;33.63;90960.84;4977010;28;20039;-79
2023/03/11 11:47:33;;;;;;;0.30;0.30;;;;;;;18.30;32.76;90954.44;4978578;28;20031;-79
2023/03/11 11:50:25;;;;;;;0.40;0.40;;;;;;;18.43;33.14;90966.22;4977817;28;20031;-79
2023/03/11 11:53:00;;;;;;;0.40;0.40;;;;;;;18.43;32.83;90957.53;4978524;28;20065;-78